sensor_id;sensor_type;location;lat;lon;timestamp;P1;durP1;ratioP1;P2;durP2;ratioP2
21729;SDS011;11027;51.030;13.812;2023-02-04T00:00:11;4.00;;;0.90;;
21729;SDS011;11027;51.030;13.812;2023-02-04T00:02:41;5.72;;;1.48;;
21729;SDS011;11027;51.030;13.812;2023-02-04T00:05:07;4.07;;;0.80;;
21729;SDS011;11027;51.030;13.812;2023-02-04T00:07:32;4.25;;;0.55;;
21729;SDS011;11027;51.030;13.812;2023-02-04T00:09:57;2.65;;;0.55;;
21729;SDS011;11027;51.030;13.812;2023-02-04T00:12:23;2.65;;;0.77;;
21729;SDS011;11027;51.030;13.812;2023-02-04T00:14:48;1.17;;;0.60;;
21729;SDS011;11027;51.030;13.812;2023-02-04T00:17:14;0.90;;;0.50;;
21729;SDS011;11027;51.030;13.812;2023-02-04T00:19:39;1.88;;;0.57;;
21729;SDS011;11027;51.030;13.812;2023-02-04T00:22:05;4.75;;;0.55;;
21729;SDS011;11027;51.030;13.812;2023-02-04T00:24:31;3.38;;;0.77;;
21729;SDS011;11027;51.030;13.812;2023-02-04T00:26:57;4.18;;;0.45;;
21729;SDS011;11027;51.030;13.812;2023-02-04T00:29:22;1.45;;;0.38;;
21729;SDS011;11027;51.030;13.812;2023-02-04T00:31:48;1.25;;;0.30;;
21729;SDS011;11027;51.030;13.812;2023-02-04T00:34:13;2.13;;;0.43;;
21729;SDS011;11027;51.030;13.812;2023-02-04T00:36:38;2.97;;;0.52;;
21729;SDS011;11027;51.030;13.812;2023-02-04T00:39:04;0.40;;;0.30;;
21729;SDS011;11027;51.030;13.812;2023-02-04T00:41:29;1.80;;;0.45;;
21729;SDS011;11027;51.030;13.812;2023-02-04T00:43:54;0.30;;;0.30;;
21729;SDS011;11027;51.030;13.812;2023-02-04T00:46:19;1.63;;;0.55;;
21729;SDS011;11027;51.030;13.812;2023-02-04T00:48:44;1.20;;;0.30;;
21729;SDS011;11027;51.030;13.812;2023-02-04T00:51:10;1.55;;;0.50;;
21729;SDS011;11027;51.030;13.812;2023-02-04T00:53:35;0.30;;;0.30;;
21729;SDS011;11027;51.030;13.812;2023-02-04T00:56:00;0.73;;;0.50;;
21729;SDS011;11027;51.030;13.812;2023-02-04T00:58:26;0.68;;;0.50;;
21729;SDS011;11027;51.030;13.812;2023-02-04T01:00:51;0.82;;;0.30;;
21729;SDS011;11027;51.030;13.812;2023-02-04T01:03:16;0.40;;;0.30;;
21729;SDS011;11027;51.030;13.812;2023-02-04T01:05:41;0.52;;;0.40;;
21729;SDS011;11027;51.030;13.812;2023-02-04T01:08:07;1.30;;;0.50;;
21729;SDS011;11027;51.030;13.812;2023-02-04T01:10:32;3.10;;;0.60;;
21729;SDS011;11027;51.030;13.812;2023-02-04T01:12:57;1.02;;;0.43;;
21729;SDS011;11027;51.030;13.812;2023-02-04T01:15:22;0.30;;;0.30;;
21729;SDS011;11027;51.030;13.812;2023-02-04T01:17:48;1.45;;;0.50;;
21729;SDS011;11027;51.030;13.812;2023-02-04T01:20:13;1.30;;;0.60;;
21729;SDS011;11027;51.030;13.812;2023-02-04T01:22:39;0.90;;;0.50;;
21729;SDS011;11027;51.030;13.812;2023-02-04T01:25:04;4.10;;;0.68;;
21729;SDS011;11027;51.030;13.812;2023-02-04T01:27:30;0.63;;;0.40;;
21729;SDS011;11027;51.030;13.812;2023-02-04T01:29:55;1.85;;;0.50;;
21729;SDS011;11027;51.030;13.812;2023-02-04T01:32:20;5.68;;;0.70;;
21729;SDS011;11027;51.030;13.812;2023-02-04T01:34:46;1.88;;;1.05;;
21729;SDS011;11027;51.030;13.812;2023-02-04T01:37:11;0.90;;;0.70;;
21729;SDS011;11027;51.030;13.812;2023-02-04T01:39:36;0.88;;;0.73;;
21729;SDS011;11027;51.030;13.812;2023-02-04T01:42:02;2.00;;;0.95;;
21729;SDS011;11027;51.030;13.812;2023-02-04T01:44:27;2.08;;;0.75;;
21729;SDS011;11027;51.030;13.812;2023-02-04T01:46:53;1.38;;;0.80;;
21729;SDS011;11027;51.030;13.812;2023-02-04T01:49:19;1.58;;;0.70;;
21729;SDS011;11027;51.030;13.812;2023-02-04T01:51:44;0.88;;;0.68;;
21729;SDS011;11027;51.030;13.812;2023-02-04T01:54:13;2.28;;;0.98;;
21729;SDS011;11027;51.030;13.812;2023-02-04T01:56:39;2.25;;;0.90;;
21729;SDS011;11027;51.030;13.812;2023-02-04T01:59:09;0.80;;;0.80;;
21729;SDS011;11027;51.030;13.812;2023-02-04T02:01:39;0.70;;;0.70;;
21729;SDS011;11027;51.030;13.812;2023-02-04T02:06:58;1.00;;;0.90;;
21729;SDS011;11027;51.030;13.812;2023-02-04T02:09:27;1.17;;;0.70;;
21729;SDS011;11027;51.030;13.812;2023-02-04T02:11:54;1.27;;;0.80;;
21729;SDS011;11027;51.030;13.812;2023-02-04T02:14:19;1.38;;;0.88;;
21729;SDS011;11027;51.030;13.812;2023-02-04T02:16:45;1.15;;;0.82;;
21729;SDS011;11027;51.030;13.812;2023-02-04T02:19:11;1.90;;;1.10;;
21729;SDS011;11027;51.030;13.812;2023-02-04T02:21:44;1.33;;;0.80;;
21729;SDS011;11027;51.030;13.812;2023-02-04T02:24:24;1.63;;;0.90;;
21729;SDS011;11027;51.030;13.812;2023-02-04T02:26:50;1.90;;;0.88;;
21729;SDS011;11027;51.030;13.812;2023-02-04T02:29:16;2.45;;;1.20;;
21729;SDS011;11027;51.030;13.812;2023-02-04T02:31:41;1.20;;;0.90;;
21729;SDS011;11027;51.030;13.812;2023-02-04T02:34:07;1.25;;;0.90;;
21729;SDS011;11027;51.030;13.812;2023-02-04T02:36:32;1.02;;;0.82;;
21729;SDS011;11027;51.030;13.812;2023-02-04T02:38:57;2.05;;;1.15;;
21729;SDS011;11027;51.030;13.812;2023-02-04T02:41:24;1.83;;;1.00;;
21729;SDS011;11027;51.030;13.812;2023-02-04T02:43:49;1.70;;;1.00;;
21729;SDS011;11027;51.030;13.812;2023-02-04T02:46:14;1.30;;;1.10;;
21729;SDS011;11027;51.030;13.812;2023-02-04T02:48:39;2.08;;;1.10;;
21729;SDS011;11027;51.030;13.812;2023-02-04T02:51:05;1.63;;;1.10;;
21729;SDS011;11027;51.030;13.812;2023-02-04T02:53:30;1.20;;;1.10;;
21729;SDS011;11027;51.030;13.812;2023-02-04T02:55:55;1.98;;;1.10;;
21729;SDS011;11027;51.030;13.812;2023-02-04T02:58:22;2.13;;;1.00;;
21729;SDS011;11027;51.030;13.812;2023-02-04T03:00:52;1.83;;;1.20;;
21729;SDS011;11027;51.030;13.812;2023-02-04T03:03:23;1.10;;;1.00;;
21729;SDS011;11027;51.030;13.812;2023-02-04T03:05:52;1.13;;;0.98;;
21729;SDS011;11027;51.030;13.812;2023-02-04T03:08:19;1.85;;;1.00;;
21729;SDS011;11027;51.030;13.812;2023-02-04T03:10:45;2.08;;;1.10;;
21729;SDS011;11027;51.030;13.812;2023-02-04T03:13:11;2.05;;;1.27;;
21729;SDS011;11027;51.030;13.812;2023-02-04T03:15:39;1.88;;;1.27;;
21729;SDS011;11027;51.030;13.812;2023-02-04T03:18:06;1.30;;;1.20;;
21729;SDS011;11027;51.030;13.812;2023-02-04T03:20:32;1.80;;;1.40;;
21729;SDS011;11027;51.030;13.812;2023-02-04T03:22:58;1.92;;;1.20;;
21729;SDS011;11027;51.030;13.812;2023-02-04T03:25:23;1.30;;;1.20;;
21729;SDS011;11027;51.030;13.812;2023-02-04T03:27:52;2.17;;;1.10;;
21729;SDS011;11027;51.030;13.812;2023-02-04T03:30:20;2.38;;;1.25;;
21729;SDS011;11027;51.030;13.812;2023-02-04T03:32:46;1.00;;;0.93;;
21729;SDS011;11027;51.030;13.812;2023-02-04T03:35:12;1.58;;;1.20;;
21729;SDS011;11027;51.030;13.812;2023-02-04T03:37:37;1.73;;;1.13;;
21729;SDS011;11027;51.030;13.812;2023-02-04T03:40:03;1.65;;;1.20;;
21729;SDS011;11027;51.030;13.812;2023-02-04T03:42:28;1.15;;;1.00;;
21729;SDS011;11027;51.030;13.812;2023-02-04T03:44:54;1.92;;;1.10;;
21729;SDS011;11027;51.030;13.812;2023-02-04T03:47:19;1.55;;;1.30;;
21729;SDS011;11027;51.030;13.812;2023-02-04T03:49:44;1.23;;;1.02;;
21729;SDS011;11027;51.030;13.812;2023-02-04T03:52:09;1.50;;;1.20;;
21729;SDS011;11027;51.030;13.812;2023-02-04T03:54:35;1.10;;;1.00;;
21729;SDS011;11027;51.030;13.812;2023-02-04T03:57:00;1.48;;;1.08;;
21729;SDS011;11027;51.030;13.812;2023-02-04T03:59:25;1.40;;;1.10;;
21729;SDS011;11027;51.030;13.812;2023-02-04T04:01:50;1.20;;;1.00;;
21729;SDS011;11027;51.030;13.812;2023-02-04T04:04:16;1.00;;;0.88;;
21729;SDS011;11027;51.030;13.812;2023-02-04T04:06:42;1.20;;;1.08;;
21729;SDS011;11027;51.030;13.812;2023-02-04T04:09:07;1.30;;;1.13;;
21729;SDS011;11027;51.030;13.812;2023-02-04T04:11:32;1.05;;;0.95;;
21729;SDS011;11027;51.030;13.812;2023-02-04T04:13:57;2.17;;;1.13;;
21729;SDS011;11027;51.030;13.812;2023-02-04T04:16:23;1.55;;;0.98;;
21729;SDS011;11027;51.030;13.812;2023-02-04T04:18:48;1.33;;;1.10;;
21729;SDS011;11027;51.030;13.812;2023-02-04T04:21:13;1.50;;;1.25;;
21729;SDS011;11027;51.030;13.812;2023-02-04T04:23:38;1.40;;;0.98;;
21729;SDS011;11027;51.030;13.812;2023-02-04T04:26:04;2.67;;;1.33;;
21729;SDS011;11027;51.030;13.812;2023-02-04T04:28:29;1.00;;;0.90;;
21729;SDS011;11027;51.030;13.812;2023-02-04T04:30:54;1.25;;;1.05;;
21729;SDS011;11027;51.030;13.812;2023-02-04T04:33:19;1.83;;;1.10;;
21729;SDS011;11027;51.030;13.812;2023-02-04T04:35:45;1.00;;;0.80;;
21729;SDS011;11027;51.030;13.812;2023-02-04T04:38:10;1.85;;;1.23;;
21729;SDS011;11027;51.030;13.812;2023-02-04T04:40:35;1.23;;;1.08;;
21729;SDS011;11027;51.030;13.812;2023-02-04T04:43:01;1.23;;;0.88;;
21729;SDS011;11027;51.030;13.812;2023-02-04T04:45:26;1.27;;;0.80;;
21729;SDS011;11027;51.030;13.812;2023-02-04T04:47:52;1.10;;;0.80;;
21729;SDS011;11027;51.030;13.812;2023-02-04T04:50:17;0.98;;;0.80;;
21729;SDS011;11027;51.030;13.812;2023-02-04T04:52:42;1.58;;;0.80;;
21729;SDS011;11027;51.030;13.812;2023-02-04T04:55:07;0.70;;;0.70;;
21729;SDS011;11027;51.030;13.812;2023-02-04T04:57:33;2.60;;;1.00;;
21729;SDS011;11027;51.030;13.812;2023-02-04T04:59:58;1.15;;;0.93;;
21729;SDS011;11027;51.030;13.812;2023-02-04T05:02:23;0.80;;;0.80;;
21729;SDS011;11027;51.030;13.812;2023-02-04T05:04:49;0.75;;;0.75;;
21729;SDS011;11027;51.030;13.812;2023-02-04T05:07:14;1.17;;;0.77;;
21729;SDS011;11027;51.030;13.812;2023-02-04T05:09:39;1.15;;;0.90;;
21729;SDS011;11027;51.030;13.812;2023-02-04T05:12:05;3.35;;;2.03;;
21729;SDS011;11027;51.030;13.812;2023-02-04T05:14:30;1.23;;;0.98;;
21729;SDS011;11027;51.030;13.812;2023-02-04T05:16:55;1.33;;;1.00;;
21729;SDS011;11027;51.030;13.812;2023-02-04T05:19:21;1.20;;;0.90;;
21729;SDS011;11027;51.030;13.812;2023-02-04T05:21:46;1.35;;;1.13;;
21729;SDS011;11027;51.030;13.812;2023-02-04T05:24:11;0.95;;;0.85;;
21729;SDS011;11027;51.030;13.812;2023-02-04T05:26:36;1.92;;;1.30;;
21729;SDS011;11027;51.030;13.812;2023-02-04T05:29:02;1.38;;;0.93;;
21729;SDS011;11027;51.030;13.812;2023-02-04T05:31:27;1.90;;;1.20;;
21729;SDS011;11027;51.030;13.812;2023-02-04T05:33:52;1.40;;;1.13;;
21729;SDS011;11027;51.030;13.812;2023-02-04T05:36:18;2.22;;;1.15;;
21729;SDS011;11027;51.030;13.812;2023-02-04T05:38:43;2.08;;;1.60;;
21729;SDS011;11027;51.030;13.812;2023-02-04T05:41:09;1.75;;;1.50;;
21729;SDS011;11027;51.030;13.812;2023-02-04T05:43:34;1.92;;;1.60;;
21729;SDS011;11027;51.030;13.812;2023-02-04T05:46:00;2.47;;;1.58;;
21729;SDS011;11027;51.030;13.812;2023-02-04T05:48:25;1.65;;;1.55;;
21729;SDS011;11027;51.030;13.812;2023-02-04T05:50:50;3.72;;;1.50;;
21729;SDS011;11027;51.030;13.812;2023-02-04T05:53:16;3.30;;;1.58;;
21729;SDS011;11027;51.030;13.812;2023-02-04T05:55:41;2.17;;;1.50;;
21729;SDS011;11027;51.030;13.812;2023-02-04T05:58:06;3.55;;;1.50;;
21729;SDS011;11027;51.030;13.812;2023-02-04T06:00:31;2.40;;;1.70;;
21729;SDS011;11027;51.030;13.812;2023-02-04T06:02:57;2.50;;;1.70;;
21729;SDS011;11027;51.030;13.812;2023-02-04T06:05:22;2.55;;;1.55;;
21729;SDS011;11027;51.030;13.812;2023-02-04T06:07:47;2.60;;;1.60;;
21729;SDS011;11027;51.030;13.812;2023-02-04T06:10:13;2.28;;;1.50;;
21729;SDS011;11027;51.030;13.812;2023-02-04T06:12:38;2.45;;;1.70;;
21729;SDS011;11027;51.030;13.812;2023-02-04T06:15:04;2.60;;;1.60;;
21729;SDS011;11027;51.030;13.812;2023-02-04T06:17:29;1.83;;;1.38;;
21729;SDS011;11027;51.030;13.812;2023-02-04T06:19:54;2.53;;;1.52;;
21729;SDS011;11027;51.030;13.812;2023-02-04T06:22:20;2.05;;;1.40;;
21729;SDS011;11027;51.030;13.812;2023-02-04T06:24:45;2.50;;;1.60;;
21729;SDS011;11027;51.030;13.812;2023-02-04T06:27:10;1.67;;;1.23;;
21729;SDS011;11027;51.030;13.812;2023-02-04T06:29:35;1.80;;;1.35;;
21729;SDS011;11027;51.030;13.812;2023-02-04T06:32:01;2.53;;;1.60;;
21729;SDS011;11027;51.030;13.812;2023-02-04T06:34:26;2.30;;;1.65;;
21729;SDS011;11027;51.030;13.812;2023-02-04T06:36:51;2.65;;;1.60;;
21729;SDS011;11027;51.030;13.812;2023-02-04T06:39:16;4.07;;;1.77;;
21729;SDS011;11027;51.030;13.812;2023-02-04T06:41:42;2.65;;;1.23;;
21729;SDS011;11027;51.030;13.812;2023-02-04T06:44:07;4.28;;;1.52;;
21729;SDS011;11027;51.030;13.812;2023-02-04T06:46:32;2.80;;;1.60;;
21729;SDS011;11027;51.030;13.812;2023-02-04T06:48:57;4.57;;;1.80;;
21729;SDS011;11027;51.030;13.812;2023-02-04T06:51:23;3.35;;;1.63;;
21729;SDS011;11027;51.030;13.812;2023-02-04T06:53:48;4.18;;;1.98;;
21729;SDS011;11027;51.030;13.812;2023-02-04T06:56:13;3.78;;;1.80;;
21729;SDS011;11027;51.030;13.812;2023-02-04T06:58:39;5.03;;;1.80;;
21729;SDS011;11027;51.030;13.812;2023-02-04T07:01:04;2.25;;;1.42;;
21729;SDS011;11027;51.030;13.812;2023-02-04T07:03:30;3.20;;;1.80;;
21729;SDS011;11027;51.030;13.812;2023-02-04T07:05:55;4.05;;;1.80;;
21729;SDS011;11027;51.030;13.812;2023-02-04T07:08:20;2.53;;;1.50;;
21729;SDS011;11027;51.030;13.812;2023-02-04T07:10:46;4.00;;;1.70;;
21729;SDS011;11027;51.030;13.812;2023-02-04T07:13:12;2.72;;;1.40;;
21729;SDS011;11027;51.030;13.812;2023-02-04T07:15:37;2.90;;;1.70;;
21729;SDS011;11027;51.030;13.812;2023-02-04T07:18:02;3.58;;;1.67;;
21729;SDS011;11027;51.030;13.812;2023-02-04T07:20:27;2.78;;;1.30;;
21729;SDS011;11027;51.030;13.812;2023-02-04T07:22:53;3.75;;;1.70;;
21729;SDS011;11027;51.030;13.812;2023-02-04T07:25:18;4.68;;;1.83;;
21729;SDS011;11027;51.030;13.812;2023-02-04T07:27:43;4.22;;;1.80;;
21729;SDS011;11027;51.030;13.812;2023-02-04T07:30:09;3.78;;;1.70;;
21729;SDS011;11027;51.030;13.812;2023-02-04T07:32:34;3.33;;;1.65;;
21729;SDS011;11027;51.030;13.812;2023-02-04T07:35:00;5.93;;;1.98;;
21729;SDS011;11027;51.030;13.812;2023-02-04T07:37:25;4.22;;;1.60;;
21729;SDS011;11027;51.030;13.812;2023-02-04T07:39:50;3.85;;;1.85;;
21729;SDS011;11027;51.030;13.812;2023-02-04T07:42:15;4.30;;;1.50;;
21729;SDS011;11027;51.030;13.812;2023-02-04T07:44:41;2.88;;;1.60;;
21729;SDS011;11027;51.030;13.812;2023-02-04T07:47:06;7.90;;;2.30;;
21729;SDS011;11027;51.030;13.812;2023-02-04T07:49:31;6.75;;;2.28;;
21729;SDS011;11027;51.030;13.812;2023-02-04T07:51:57;5.18;;;2.40;;
21729;SDS011;11027;51.030;13.812;2023-02-04T07:54:22;3.47;;;1.88;;
21729;SDS011;11027;51.030;13.812;2023-02-04T07:56:47;4.32;;;1.80;;
21729;SDS011;11027;51.030;13.812;2023-02-04T07:59:13;3.97;;;1.67;;
21729;SDS011;11027;51.030;13.812;2023-02-04T08:01:38;4.57;;;1.80;;
21729;SDS011;11027;51.030;13.812;2023-02-04T08:04:03;3.13;;;1.50;;
21729;SDS011;11027;51.030;13.812;2023-02-04T08:06:28;4.22;;;1.73;;
21729;SDS011;11027;51.030;13.812;2023-02-04T08:08:54;3.42;;;1.50;;
21729;SDS011;11027;51.030;13.812;2023-02-04T08:11:19;4.32;;;1.77;;
21729;SDS011;11027;51.030;13.812;2023-02-04T08:13:44;3.55;;;1.50;;
21729;SDS011;11027;51.030;13.812;2023-02-04T08:16:09;4.45;;;1.80;;
21729;SDS011;11027;51.030;13.812;2023-02-04T08:18:35;3.17;;;1.70;;
21729;SDS011;11027;51.030;13.812;2023-02-04T08:21:00;4.22;;;1.73;;
21729;SDS011;11027;51.030;13.812;2023-02-04T08:23:26;4.57;;;2.25;;
21729;SDS011;11027;51.030;13.812;2023-02-04T08:25:51;7.95;;;1.70;;
21729;SDS011;11027;51.030;13.812;2023-02-04T08:28:16;4.88;;;1.80;;
21729;SDS011;11027;51.030;13.812;2023-02-04T08:30:42;3.53;;;1.65;;
21729;SDS011;11027;51.030;13.812;2023-02-04T08:33:07;5.88;;;2.00;;
21729;SDS011;11027;51.030;13.812;2023-02-04T08:35:32;2.58;;;1.77;;
21729;SDS011;11027;51.030;13.812;2023-02-04T08:37:57;4.88;;;2.03;;
21729;SDS011;11027;51.030;13.812;2023-02-04T08:40:23;5.18;;;2.03;;
21729;SDS011;11027;51.030;13.812;2023-02-04T08:42:48;3.33;;;1.50;;
21729;SDS011;11027;51.030;13.812;2023-02-04T08:45:13;4.30;;;1.77;;
21729;SDS011;11027;51.030;13.812;2023-02-04T08:47:39;4.35;;;2.22;;
21729;SDS011;11027;51.030;13.812;2023-02-04T08:50:04;5.13;;;2.10;;
21729;SDS011;11027;51.030;13.812;2023-02-04T08:52:30;5.32;;;1.88;;
21729;SDS011;11027;51.030;13.812;2023-02-04T08:54:55;5.25;;;2.15;;
21729;SDS011;11027;51.030;13.812;2023-02-04T08:57:20;5.95;;;2.40;;
21729;SDS011;11027;51.030;13.812;2023-02-04T08:59:45;5.30;;;2.28;;
21729;SDS011;11027;51.030;13.812;2023-02-04T09:02:11;5.22;;;2.45;;
21729;SDS011;11027;51.030;13.812;2023-02-04T09:04:36;5.20;;;2.10;;
21729;SDS011;11027;51.030;13.812;2023-02-04T09:07:01;4.00;;;1.90;;
21729;SDS011;11027;51.030;13.812;2023-02-04T09:09:27;5.30;;;1.92;;
21729;SDS011;11027;51.030;13.812;2023-02-04T09:11:52;4.82;;;2.10;;
21729;SDS011;11027;51.030;13.812;2023-02-04T09:14:17;7.07;;;2.05;;
21729;SDS011;11027;51.030;13.812;2023-02-04T09:16:43;5.10;;;2.17;;
21729;SDS011;11027;51.030;13.812;2023-02-04T09:19:08;8.23;;;3.30;;
21729;SDS011;11027;51.030;13.812;2023-02-04T09:21:36;4.10;;;1.67;;
21729;SDS011;11027;51.030;13.812;2023-02-04T09:24:01;3.53;;;1.88;;
21729;SDS011;11027;51.030;13.812;2023-02-04T09:26:27;4.30;;;1.90;;
21729;SDS011;11027;51.030;13.812;2023-02-04T09:28:52;6.28;;;2.60;;
21729;SDS011;11027;51.030;13.812;2023-02-04T09:31:17;4.10;;;2.00;;
21729;SDS011;11027;51.030;13.812;2023-02-04T09:33:42;3.55;;;1.70;;
21729;SDS011;11027;51.030;13.812;2023-02-04T09:36:08;3.10;;;1.83;;
21729;SDS011;11027;51.030;13.812;2023-02-04T09:38:33;2.35;;;1.60;;
21729;SDS011;11027;51.030;13.812;2023-02-04T09:41:00;5.07;;;1.83;;
21729;SDS011;11027;51.030;13.812;2023-02-04T09:43:33;3.95;;;1.83;;
21729;SDS011;11027;51.030;13.812;2023-02-04T09:46:02;3.88;;;1.90;;
21729;SDS011;11027;51.030;13.812;2023-02-04T09:48:28;5.20;;;1.73;;
21729;SDS011;11027;51.030;13.812;2023-02-04T09:50:59;4.28;;;1.88;;
21729;SDS011;11027;51.030;13.812;2023-02-04T09:53:28;5.13;;;1.90;;
21729;SDS011;11027;51.030;13.812;2023-02-04T09:55:54;4.30;;;1.75;;
21729;SDS011;11027;51.030;13.812;2023-02-04T09:58:20;4.05;;;1.80;;
21729;SDS011;11027;51.030;13.812;2023-02-04T10:00:48;3.72;;;1.63;;
21729;SDS011;11027;51.030;13.812;2023-02-04T10:03:20;4.45;;;2.10;;
21729;SDS011;11027;51.030;13.812;2023-02-04T10:05:47;7.05;;;2.58;;
21729;SDS011;11027;51.030;13.812;2023-02-04T10:08:14;6.78;;;1.85;;
21729;SDS011;11027;51.030;13.812;2023-02-04T10:10:41;3.90;;;1.75;;
21729;SDS011;11027;51.030;13.812;2023-02-04T10:13:09;6.22;;;2.97;;
21729;SDS011;11027;51.030;13.812;2023-02-04T10:15:40;5.65;;;2.50;;
21729;SDS011;11027;51.030;13.812;2023-02-04T10:18:05;5.40;;;2.33;;
21729;SDS011;11027;51.030;13.812;2023-02-04T10:20:32;3.80;;;1.92;;
21729;SDS011;11027;51.030;13.812;2023-02-04T10:22:58;4.35;;;1.70;;
21729;SDS011;11027;51.030;13.812;2023-02-04T10:25:24;2.67;;;1.85;;
21729;SDS011;11027;51.030;13.812;2023-02-04T10:27:56;3.17;;;1.60;;
21729;SDS011;11027;51.030;13.812;2023-02-04T10:30:24;4.45;;;1.80;;
21729;SDS011;11027;51.030;13.812;2023-02-04T10:32:51;6.25;;;1.88;;
21729;SDS011;11027;51.030;13.812;2023-02-04T10:35:17;5.55;;;1.60;;
21729;SDS011;11027;51.030;13.812;2023-02-04T10:37:44;4.05;;;1.60;;
21729;SDS011;11027;51.030;13.812;2023-02-04T10:40:29;2.65;;;1.45;;
21729;SDS011;11027;51.030;13.812;2023-02-04T10:42:56;5.00;;;1.40;;
21729;SDS011;11027;51.030;13.812;2023-02-04T10:45:22;3.15;;;1.58;;
21729;SDS011;11027;51.030;13.812;2023-02-04T10:47:50;3.35;;;1.83;;
21729;SDS011;11027;51.030;13.812;2023-02-04T10:50:17;4.55;;;1.67;;
21729;SDS011;11027;51.030;13.812;2023-02-04T10:52:44;3.17;;;1.80;;
21729;SDS011;11027;51.030;13.812;2023-02-04T10:55:16;3.35;;;1.70;;
21729;SDS011;11027;51.030;13.812;2023-02-04T10:57:44;4.07;;;1.90;;
21729;SDS011;11027;51.030;13.812;2023-02-04T11:00:21;3.40;;;1.60;;
21729;SDS011;11027;51.030;13.812;2023-02-04T11:02:54;2.65;;;1.55;;
21729;SDS011;11027;51.030;13.812;2023-02-04T11:05:21;4.50;;;2.00;;
21729;SDS011;11027;51.030;13.812;2023-02-04T11:07:48;4.53;;;1.60;;
21729;SDS011;11027;51.030;13.812;2023-02-04T11:10:15;3.17;;;1.65;;
21729;SDS011;11027;51.030;13.812;2023-02-04T11:12:44;2.60;;;1.67;;
21729;SDS011;11027;51.030;13.812;2023-02-04T11:18:08;3.17;;;1.80;;
21729;SDS011;11027;51.030;13.812;2023-02-04T11:20:37;5.03;;;1.95;;
21729;SDS011;11027;51.030;13.812;2023-02-04T11:23:14;5.68;;;1.77;;
21729;SDS011;11027;51.030;13.812;2023-02-04T11:26:08;4.18;;;1.60;;
21729;SDS011;11027;51.030;13.812;2023-02-04T11:33:50;4.20;;;1.65;;
21729;SDS011;11027;51.030;13.812;2023-02-04T11:36:31;4.00;;;1.60;;
21729;SDS011;11027;51.030;13.812;2023-02-04T11:38:56;4.60;;;1.80;;
21729;SDS011;11027;51.030;13.812;2023-02-04T11:41:32;3.88;;;1.70;;
21729;SDS011;11027;51.030;13.812;2023-02-04T11:43:57;4.28;;;1.70;;
21729;SDS011;11027;51.030;13.812;2023-02-04T11:46:23;2.85;;;1.50;;
21729;SDS011;11027;51.030;13.812;2023-02-04T11:48:53;2.40;;;1.10;;
21729;SDS011;11027;51.030;13.812;2023-02-04T11:51:22;1.70;;;1.00;;
21729;SDS011;11027;51.030;13.812;2023-02-04T11:53:53;2.88;;;1.33;;
21729;SDS011;11027;51.030;13.812;2023-02-04T11:56:19;1.50;;;1.17;;
21729;SDS011;11027;51.030;13.812;2023-02-04T11:58:45;3.22;;;1.55;;
21729;SDS011;11027;51.030;13.812;2023-02-04T12:01:19;2.85;;;1.30;;
21729;SDS011;11027;51.030;13.812;2023-02-04T12:03:46;3.33;;;1.48;;
21729;SDS011;11027;51.030;13.812;2023-02-04T12:06:20;2.05;;;1.10;;
21729;SDS011;11027;51.030;13.812;2023-02-04T12:08:46;2.83;;;1.20;;
21729;SDS011;11027;51.030;13.812;2023-02-04T12:11:21;1.98;;;1.20;;
21729;SDS011;11027;51.030;13.812;2023-02-04T12:13:53;2.95;;;1.17;;
21729;SDS011;11027;51.030;13.812;2023-02-04T12:16:19;5.57;;;1.80;;
21729;SDS011;11027;51.030;13.812;2023-02-04T12:18:44;3.20;;;1.20;;
21729;SDS011;11027;51.030;13.812;2023-02-04T12:21:10;2.15;;;1.15;;
21729;SDS011;11027;51.030;13.812;2023-02-04T12:23:35;1.45;;;1.27;;
21729;SDS011;11027;51.030;13.812;2023-02-04T12:26:01;1.40;;;0.90;;
21729;SDS011;11027;51.030;13.812;2023-02-04T12:28:26;1.42;;;1.00;;
21729;SDS011;11027;51.030;13.812;2023-02-04T12:30:52;2.22;;;1.05;;
21729;SDS011;11027;51.030;13.812;2023-02-04T12:33:18;2.28;;;1.40;;
21729;SDS011;11027;51.030;13.812;2023-02-04T12:35:43;4.05;;;1.00;;
21729;SDS011;11027;51.030;13.812;2023-02-04T12:38:09;4.28;;;1.40;;
21729;SDS011;11027;51.030;13.812;2023-02-04T12:40:34;3.53;;;1.20;;
21729;SDS011;11027;51.030;13.812;2023-02-04T12:43:00;2.47;;;1.02;;
21729;SDS011;11027;51.030;13.812;2023-02-04T12:45:25;2.92;;;1.05;;
21729;SDS011;11027;51.030;13.812;2023-02-04T12:47:51;1.63;;;0.93;;
21729;SDS011;11027;51.030;13.812;2023-02-04T12:50:16;0.73;;;0.63;;
21729;SDS011;11027;51.030;13.812;2023-02-04T12:52:52;4.00;;;0.80;;
21729;SDS011;11027;51.030;13.812;2023-02-04T12:55:22;2.55;;;1.20;;
21729;SDS011;11027;51.030;13.812;2023-02-04T12:57:49;1.70;;;1.10;;
21729;SDS011;11027;51.030;13.812;2023-02-04T13:00:15;3.33;;;1.45;;
21729;SDS011;11027;51.030;13.812;2023-02-04T13:02:44;3.15;;;1.20;;
21729;SDS011;11027;51.030;13.812;2023-02-04T13:05:10;3.05;;;0.77;;
21729;SDS011;11027;51.030;13.812;2023-02-04T13:07:35;2.42;;;1.25;;
21729;SDS011;11027;51.030;13.812;2023-02-04T13:10:01;1.35;;;0.70;;
21729;SDS011;11027;51.030;13.812;2023-02-04T13:12:26;1.50;;;0.85;;
21729;SDS011;11027;51.030;13.812;2023-02-04T13:14:52;2.40;;;0.90;;
21729;SDS011;11027;51.030;13.812;2023-02-04T13:17:17;1.63;;;0.82;;
21729;SDS011;11027;51.030;13.812;2023-02-04T13:19:42;2.17;;;0.90;;
21729;SDS011;11027;51.030;13.812;2023-02-04T13:22:08;1.40;;;0.80;;
21729;SDS011;11027;51.030;13.812;2023-02-04T13:24:33;1.45;;;0.80;;
21729;SDS011;11027;51.030;13.812;2023-02-04T13:26:58;1.55;;;0.70;;
21729;SDS011;11027;51.030;13.812;2023-02-04T13:29:23;1.58;;;0.68;;
21729;SDS011;11027;51.030;13.812;2023-02-04T13:31:49;0.75;;;0.50;;
21729;SDS011;11027;51.030;13.812;2023-02-04T13:34:14;1.20;;;0.60;;
21729;SDS011;11027;51.030;13.812;2023-02-04T13:36:40;0.77;;;0.55;;
21729;SDS011;11027;51.030;13.812;2023-02-04T13:39:07;1.63;;;0.80;;
21729;SDS011;11027;51.030;13.812;2023-02-04T13:41:32;6.18;;;0.80;;
21729;SDS011;11027;51.030;13.812;2023-02-04T13:43:57;1.13;;;0.60;;
21729;SDS011;11027;51.030;13.812;2023-02-04T13:46:23;1.85;;;0.68;;
21729;SDS011;11027;51.030;13.812;2023-02-04T13:48:48;1.02;;;0.52;;
21729;SDS011;11027;51.030;13.812;2023-02-04T13:51:14;1.45;;;0.40;;
21729;SDS011;11027;51.030;13.812;2023-02-04T13:53:40;2.78;;;0.70;;
21729;SDS011;11027;51.030;13.812;2023-02-04T13:56:07;1.83;;;0.50;;
21729;SDS011;11027;51.030;13.812;2023-02-04T13:58:32;1.73;;;0.43;;
21729;SDS011;11027;51.030;13.812;2023-02-04T14:00:57;1.70;;;0.43;;
21729;SDS011;11027;51.030;13.812;2023-02-04T14:03:23;2.28;;;0.60;;
21729;SDS011;11027;51.030;13.812;2023-02-04T14:05:49;2.10;;;0.70;;
21729;SDS011;11027;51.030;13.812;2023-02-04T14:08:15;4.20;;;0.60;;
21729;SDS011;11027;51.030;13.812;2023-02-04T14:10:40;3.45;;;0.70;;
21729;SDS011;11027;51.030;13.812;2023-02-04T14:13:06;2.08;;;0.80;;
21729;SDS011;11027;51.030;13.812;2023-02-04T14:15:31;3.08;;;0.77;;
21729;SDS011;11027;51.030;13.812;2023-02-04T14:17:58;0.43;;;0.30;;
21729;SDS011;11027;51.030;13.812;2023-02-04T14:20:24;2.42;;;0.60;;
21729;SDS011;11027;51.030;13.812;2023-02-04T14:22:49;0.70;;;0.40;;
21729;SDS011;11027;51.030;13.812;2023-02-04T14:25:14;1.20;;;0.50;;
21729;SDS011;11027;51.030;13.812;2023-02-04T14:27:40;0.85;;;0.43;;
21729;SDS011;11027;51.030;13.812;2023-02-04T14:30:07;1.70;;;0.60;;
21729;SDS011;11027;51.030;13.812;2023-02-04T14:32:40;0.90;;;0.65;;
21729;SDS011;11027;51.030;13.812;2023-02-04T14:35:05;2.00;;;0.60;;
21729;SDS011;11027;51.030;13.812;2023-02-04T14:37:31;1.98;;;0.50;;